createdAt,value
2022-08-30T00:01:32.537Z,15.97
2022-08-30T00:04:02.153Z,15.96
2022-08-30T00:06:31.553Z,15.94
2022-08-30T00:08:59.821Z,15.92
2022-08-30T00:11:29.186Z,15.90
2022-08-30T00:13:59.913Z,15.87
2022-08-30T00:16:27.899Z,15.86
2022-08-30T00:18:55.963Z,15.84
2022-08-30T00:21:23.854Z,15.81
2022-08-30T00:23:51.983Z,15.81
2022-08-30T00:26:19.709Z,15.79
2022-08-30T00:28:47.802Z,15.75
2022-08-30T00:31:17.111Z,15.72
2022-08-30T00:33:44.880Z,15.70
2022-08-30T00:36:12.606Z,15.67
2022-08-30T00:38:40.321Z,15.66
2022-08-30T00:41:08.582Z,15.63
2022-08-30T00:43:37.238Z,15.62
2022-08-30T00:46:08.042Z,15.61
2022-08-30T00:48:40.819Z,15.58
2022-08-30T00:51:12.005Z,15.55
2022-08-30T00:53:43.655Z,15.53
2022-08-30T00:56:12.068Z,15.50
2022-08-30T00:58:44.408Z,15.46
2022-08-30T01:01:12.583Z,15.43
2022-08-30T01:03:43.214Z,15.40
2022-08-30T01:06:11.305Z,15.37
2022-08-30T01:08:39.447Z,15.35
2022-08-30T01:11:08.246Z,15.32
2022-08-30T01:13:36.344Z,15.30
2022-08-30T01:16:04.905Z,15.27
2022-08-30T01:18:33.306Z,15.23
2022-08-30T01:21:10.260Z,15.19
2022-08-30T01:23:44.129Z,15.16
2022-08-30T01:26:12.781Z,15.12
2022-08-30T01:28:44.751Z,15.09
2022-08-30T01:31:12.569Z,15.04
2022-08-30T01:33:40.264Z,15.04
2022-08-30T01:36:12.301Z,15.02
2022-08-30T01:38:45.563Z,15.00
2022-08-30T01:41:16.520Z,14.99
2022-08-30T01:43:45.271Z,14.98
2022-08-30T01:46:14.705Z,14.94
2022-08-30T01:48:50.217Z,14.91
2022-08-30T01:51:23.195Z,14.89
2022-08-30T01:53:52.467Z,14.85
2022-08-30T01:56:20.624Z,14.82
2022-08-30T01:58:48.672Z,14.79
2022-08-30T02:01:19.745Z,14.75
2022-08-30T02:03:48.452Z,14.71
2022-08-30T02:06:19.379Z,14.66
2022-08-30T02:08:47.919Z,14.62
2022-08-30T02:11:18.242Z,14.59
2022-08-30T02:13:46.799Z,14.54
2022-08-30T02:16:17.257Z,14.51
2022-08-30T02:18:45.263Z,14.48
2022-08-30T02:21:13.781Z,14.45
2022-08-30T02:23:42.369Z,14.42
2022-08-30T02:26:10.709Z,14.38
2022-08-30T02:28:49.461Z,14.36
2022-08-30T02:31:20.420Z,14.30
2022-08-30T02:33:50.889Z,14.28
2022-08-30T02:36:20.632Z,14.25
2022-08-30T02:38:49.093Z,14.21
2022-08-30T02:41:17.282Z,14.20
2022-08-30T02:43:46.536Z,14.19
2022-08-30T02:46:14.339Z,14.18
2022-08-30T02:48:42.140Z,14.14
2022-08-30T02:51:12.381Z,14.11
2022-08-30T02:53:41.079Z,14.06
2022-08-30T02:56:09.011Z,14.04
2022-08-30T02:58:37.133Z,14.00
2022-08-30T03:01:06.955Z,13.97
2022-08-30T03:03:34.752Z,13.94
2022-08-30T03:06:03.480Z,13.90
2022-08-30T03:08:31.565Z,13.88
2022-08-30T03:10:59.491Z,13.86
2022-08-30T03:13:27.335Z,13.83
2022-08-30T03:15:55.058Z,13.79
2022-08-30T03:18:25.464Z,13.77
2022-08-30T03:20:54.309Z,13.74
2022-08-30T03:23:24.817Z,13.73
2022-08-30T03:25:53.406Z,13.71
2022-08-30T03:28:21.218Z,13.68
2022-08-30T03:30:48.861Z,13.67
2022-08-30T03:33:18.222Z,13.67
2022-08-30T03:35:48.015Z,13.65
2022-08-30T03:38:15.705Z,13.62
2022-08-30T03:40:44.703Z,13.61
2022-08-30T03:43:12.512Z,13.60
2022-08-30T03:45:40.508Z,13.58
2022-08-30T03:48:08.224Z,13.56
2022-08-30T03:50:36.882Z,13.53
2022-08-30T03:53:05.935Z,13.51
2022-08-30T03:55:33.768Z,13.50
2022-08-30T03:58:01.500Z,13.49
2022-08-30T04:00:29.374Z,13.48
2022-08-30T04:02:57.102Z,13.48
2022-08-30T04:05:25.032Z,13.47
2022-08-30T04:07:53.007Z,13.45
2022-08-30T04:10:22.593Z,13.43
2022-08-30T04:12:51.152Z,13.45
2022-08-30T04:15:20.672Z,13.41
2022-08-30T04:17:48.771Z,13.40
2022-08-30T04:20:17.655Z,13.36
2022-08-30T04:22:45.396Z,13.35
2022-08-30T04:25:15.575Z,13.32
2022-08-30T04:27:46.327Z,13.28
2022-08-30T04:30:15.522Z,13.26
2022-08-30T04:32:43.431Z,13.23
2022-08-30T04:35:12.762Z,13.23
2022-08-30T04:37:40.910Z,13.22
2022-08-30T04:40:10.313Z,13.19
2022-08-30T04:42:38.771Z,13.16
2022-08-30T04:45:10.663Z,13.15
2022-08-30T04:47:39.154Z,13.13
2022-08-30T04:50:08.626Z,13.10
2022-08-30T04:52:36.610Z,13.09
2022-08-30T04:55:05.452Z,13.05
2022-08-30T04:57:33.567Z,13.02
2022-08-30T05:00:01.322Z,12.98
2022-08-30T05:02:30.696Z,12.96
2022-08-30T05:05:15.980Z,12.95
2022-08-30T05:07:43.739Z,12.95
2022-08-30T05:10:11.795Z,12.95
2022-08-30T05:12:39.954Z,12.96
2022-08-30T05:15:09.049Z,12.97
2022-08-30T05:17:39.617Z,13.00
2022-08-30T05:20:12.196Z,13.04
2022-08-30T05:22:49.824Z,13.06
2022-08-30T05:25:23.935Z,13.12
2022-08-30T05:27:52.489Z,13.16
2022-08-30T05:30:21.217Z,13.19
2022-08-30T05:32:50.404Z,13.23
2022-08-30T05:35:23.545Z,13.29
2022-08-30T05:37:53.309Z,13.36
2022-08-30T05:40:22.464Z,13.42
2022-08-30T05:42:50.344Z,13.48
2022-08-30T05:45:18.160Z,13.53
2022-08-30T05:47:47.528Z,13.58
2022-08-30T05:50:16.656Z,13.65
2022-08-30T05:52:44.955Z,13.73
2022-08-30T05:55:13.056Z,13.82
2022-08-30T05:57:41.887Z,13.87
2022-08-30T06:00:12.417Z,13.92
2022-08-30T06:02:40.656Z,13.99
2022-08-30T06:05:09.482Z,14.03
2022-08-30T06:07:43.662Z,14.09
2022-08-30T06:10:12.328Z,14.17
2022-08-30T06:12:40.395Z,14.24
2022-08-30T06:15:09.149Z,14.30
2022-08-30T06:17:39.496Z,14.38
2022-08-30T06:20:09.023Z,14.47
2022-08-30T06:22:38.639Z,14.58
2022-08-30T06:25:09.155Z,14.72
2022-08-30T06:27:37.030Z,14.90
2022-08-30T06:30:08.151Z,15.08
2022-08-30T06:32:35.910Z,15.27
2022-08-30T06:35:04.987Z,15.44
2022-08-30T06:37:32.976Z,15.60
2022-08-30T06:40:02.330Z,15.78
2022-08-30T06:42:33.330Z,15.92
2022-08-30T06:45:01.689Z,16.07
2022-08-30T06:47:29.479Z,16.18
2022-08-30T06:49:57.984Z,16.35
2022-08-30T06:52:25.801Z,16.45
2022-08-30T06:54:54.655Z,16.51
2022-08-30T06:57:22.359Z,16.56
2022-08-30T06:59:56.673Z,16.60
2022-08-30T07:02:25.298Z,16.65
2022-08-30T07:04:53.265Z,16.69
2022-08-30T07:07:21.105Z,16.76
2022-08-30T07:09:48.846Z,16.77
2022-08-30T07:12:17.089Z,16.81
2022-08-30T07:14:44.878Z,16.89
2022-08-30T07:17:34.670Z,17.00
2022-08-30T07:20:05.146Z,17.14
2022-08-30T07:22:33.431Z,17.24
2022-08-30T07:25:01.154Z,17.38
2022-08-30T07:27:29.147Z,17.47
2022-08-30T07:29:58.695Z,17.62
2022-08-30T07:32:27.782Z,17.82
2022-08-30T07:34:56.640Z,18.05
2022-08-30T07:37:24.767Z,18.27
2022-08-30T07:39:53.024Z,18.55
2022-08-30T07:42:20.678Z,18.79
2022-08-30T07:44:48.640Z,19.00
2022-08-30T07:47:16.780Z,19.23
2022-08-30T07:49:45.852Z,19.38
2022-08-30T07:52:13.575Z,19.55
2022-08-30T07:54:41.310Z,19.64
2022-08-30T07:57:08.993Z,19.80
2022-08-30T07:59:36.688Z,19.99
2022-08-30T08:02:04.937Z,20.16
2022-08-30T08:04:33.171Z,20.31
2022-08-30T08:07:02.414Z,20.47
2022-08-30T08:09:30.154Z,20.53
2022-08-30T08:11:57.965Z,20.62
2022-08-30T08:14:26.074Z,20.73
2022-08-30T08:16:53.765Z,20.83
2022-08-30T08:19:21.742Z,20.97
2022-08-30T08:21:59.379Z,21.04
2022-08-30T08:24:38.863Z,21.06
2022-08-30T08:27:07.040Z,21.20
2022-08-30T08:29:34.844Z,21.25
2022-08-30T08:32:02.780Z,21.39
2022-08-30T08:34:30.498Z,21.46
2022-08-30T08:36:58.213Z,21.57
2022-08-30T08:39:25.892Z,21.56
2022-08-30T08:42:06.693Z,21.68
2022-08-30T08:47:18.920Z,21.80
2022-08-30T08:49:51.109Z,21.90
2022-08-30T08:52:41.318Z,21.95
2022-08-30T08:55:12.217Z,21.99
2022-08-30T08:57:41.889Z,22.08
2022-08-30T09:00:13.944Z,22.10
2022-08-30T09:02:45.227Z,22.17
2022-08-30T09:05:16.423Z,22.20
2022-08-30T09:07:49.457Z,22.25
2022-08-30T09:10:22.991Z,22.29
2022-08-30T09:13:00.223Z,22.28
2022-08-30T09:15:34.222Z,22.26
2022-08-30T09:18:04.256Z,22.22
2022-08-30T09:20:35.002Z,22.26
2022-08-30T09:23:23.301Z,22.27
2022-08-30T09:25:52.985Z,22.28
2022-08-30T09:28:25.715Z,22.35
2022-08-30T09:31:03.737Z,22.44
2022-08-30T09:33:32.462Z,22.26
2022-08-30T09:36:14.917Z,22.19
2022-08-30T09:38:43.029Z,22.14
2022-08-30T09:41:30.520Z,22.18
2022-08-30T09:44:10.649Z,22.21
2022-08-30T09:46:47.126Z,22.20
2022-08-30T09:49:36.749Z,22.21
2022-08-30T09:52:18.470Z,22.23
2022-08-30T09:54:58.844Z,22.17
2022-08-30T09:57:36.503Z,22.12
2022-08-30T10:00:09.032Z,22.12
2022-08-30T10:02:52.174Z,22.29
2022-08-30T10:05:26.466Z,22.26
2022-08-30T10:08:02.928Z,22.29
2022-08-30T10:10:41.796Z,22.46
2022-08-30T10:13:36.812Z,22.54
2022-08-30T10:16:16.755Z,22.58
2022-08-30T10:18:53.141Z,22.56
2022-08-30T10:21:27.359Z,22.58
2022-08-30T10:23:59.605Z,22.58
2022-08-30T10:26:32.900Z,22.60
2022-08-30T10:29:04.406Z,22.61
2022-08-30T10:31:39.937Z,22.70
2022-08-30T10:34:13.603Z,22.67
2022-08-30T10:36:46.109Z,22.66
2022-08-30T10:39:20.499Z,22.76
2022-08-30T10:41:51.744Z,22.90
2022-08-30T10:44:27.375Z,22.90
2022-08-30T10:47:11.749Z,22.88
2022-08-30T10:49:48.025Z,22.94
2022-08-30T10:52:26.464Z,22.92
2022-08-30T10:54:58.838Z,23.02
2022-08-30T10:57:26.877Z,22.96
2022-08-30T11:00:00.973Z,22.92
2022-08-30T11:03:02.789Z,22.88
2022-08-30T11:05:46.199Z,22.82
2022-08-30T11:08:25.831Z,22.81
2022-08-30T11:11:05.563Z,22.75
2022-08-30T11:13:42.895Z,22.69
2022-08-30T11:16:15.876Z,22.63
2022-08-30T11:18:51.013Z,22.63
2022-08-30T11:21:32.342Z,22.67
2022-08-30T11:24:07.830Z,22.66
2022-08-30T11:27:04.879Z,22.68
2022-08-30T11:29:39.430Z,22.69
2022-08-30T11:32:39.799Z,22.75
2022-08-30T11:35:11.117Z,22.66
2022-08-30T11:37:42.470Z,22.65
2022-08-30T11:40:50.025Z,22.59
2022-08-30T11:43:55.495Z,22.64
2022-08-30T11:46:38.159Z,22.73
2022-08-30T11:49:30.984Z,22.69
2022-08-30T11:52:27.505Z,22.71
2022-08-30T11:55:10.412Z,22.75
2022-08-30T11:57:49.854Z,22.80
2022-08-30T12:00:29.817Z,22.80
2022-08-30T12:03:01.404Z,22.81
2022-08-30T12:05:52.261Z,22.80
2022-08-30T12:08:48.087Z,22.81
2022-08-30T12:12:04.536Z,22.82
2022-08-30T12:14:54.487Z,22.83
2022-08-30T12:17:46.207Z,22.87
2022-08-30T12:20:39.477Z,22.89
2022-08-30T12:23:21.947Z,22.96
2022-08-30T12:26:11.029Z,22.97
2022-08-30T12:28:38.756Z,23.00
2022-08-30T12:31:13.707Z,23.06
2022-08-30T12:33:44.568Z,23.03
2022-08-30T12:36:15.315Z,23.07
2022-08-30T12:38:43.180Z,23.07
2022-08-30T12:41:21.024Z,23.08
2022-08-30T12:43:51.728Z,23.14
2022-08-30T12:46:22.004Z,23.17
2022-08-30T12:48:50.828Z,23.18
2022-08-30T12:51:38.305Z,23.24
2022-08-30T12:54:16.297Z,23.32
2022-08-30T12:56:57.651Z,23.35
2022-08-30T12:59:54.186Z,23.42
2022-08-30T13:02:28.015Z,23.42
2022-08-30T13:04:58.435Z,23.41
2022-08-30T13:07:32.654Z,23.46
2022-08-30T13:10:21.314Z,23.49
2022-08-30T13:13:05.208Z,23.51
2022-08-30T13:15:35.796Z,23.52
2022-08-30T13:18:26.849Z,23.65
2022-08-30T13:21:10.585Z,23.54
2022-08-30T13:23:38.418Z,23.55
2022-08-30T13:26:08.625Z,23.60
2022-08-30T13:28:52.800Z,23.67
2022-08-30T13:31:21.452Z,23.74
2022-08-30T13:33:53.133Z,23.81
2022-08-30T13:36:23.053Z,23.84
2022-08-30T13:38:53.011Z,23.84
2022-08-30T13:41:21.314Z,23.88
2022-08-30T13:46:40.875Z,24.01
2022-08-30T13:52:19.167Z,24.15
2022-08-30T13:54:49.787Z,24.15
2022-08-30T13:57:53.391Z,24.21
2022-08-30T14:00:12.338Z,24.28
2022-08-30T14:02:46.466Z,24.32
2022-08-30T14:05:37.545Z,24.33
2022-08-30T14:08:05.986Z,24.38
2022-08-30T14:10:39.445Z,24.43
2022-08-30T14:13:14.619Z,24.59
2022-08-30T14:15:43.716Z,24.62
2022-08-30T14:18:17.249Z,24.65
2022-08-30T14:20:45.862Z,24.68
2022-08-30T14:23:13.566Z,24.64
2022-08-30T14:25:41.265Z,24.68
2022-08-30T14:28:09.576Z,24.73
2022-08-30T14:30:44.547Z,24.76
2022-08-30T14:33:12.384Z,24.86
2022-08-30T14:35:41.325Z,24.91
2022-08-30T14:38:09.134Z,24.91
2022-08-30T14:40:39.111Z,24.93
2022-08-30T14:43:07.564Z,24.89
2022-08-30T14:45:35.199Z,24.88
2022-08-30T14:48:11.523Z,24.93
2022-08-30T14:50:40.550Z,24.98
2022-08-30T14:53:08.719Z,25.01
2022-08-30T14:55:37.326Z,24.99
2022-08-30T14:58:06.796Z,24.96
2022-08-30T15:00:34.552Z,24.81
2022-08-30T15:03:05.636Z,24.74
2022-08-30T15:05:33.388Z,24.72
2022-08-30T15:08:01.099Z,24.62
2022-08-30T15:10:28.811Z,24.54
2022-08-30T15:12:56.465Z,24.45
2022-08-30T15:15:24.352Z,24.46
2022-08-30T15:17:52.153Z,24.44
2022-08-30T15:20:21.424Z,24.37
2022-08-30T15:22:49.104Z,24.33
2022-08-30T15:25:16.847Z,24.36
2022-08-30T15:27:45.504Z,24.28
2022-08-30T15:30:16.966Z,24.19
2022-08-30T15:32:48.136Z,24.16
2022-08-30T15:35:16.651Z,24.13
2022-08-30T15:37:45.865Z,24.10
2022-08-30T15:40:14.053Z,24.04
2022-08-30T15:42:42.343Z,24.01
2022-08-30T15:45:11.066Z,23.97
2022-08-30T15:47:38.835Z,23.94
2022-08-30T15:50:09.065Z,23.91
2022-08-30T15:52:36.906Z,23.88
2022-08-30T15:55:07.150Z,23.85
2022-08-30T15:57:34.855Z,23.82
2022-08-30T16:00:03.324Z,23.76
2022-08-30T16:02:36.251Z,23.74
2022-08-30T16:05:04.679Z,23.69
2022-08-30T16:07:35.303Z,23.67
2022-08-30T16:10:07.907Z,23.61
2022-08-30T16:12:35.631Z,23.54
2022-08-30T16:15:03.328Z,23.50
2022-08-30T16:17:31.002Z,23.57
2022-08-30T16:19:59.056Z,23.47
2022-08-30T16:22:26.992Z,23.44
2022-08-30T16:24:55.376Z,23.44
2022-08-30T16:27:24.951Z,23.46
2022-08-30T16:29:52.711Z,23.44
2022-08-30T16:32:21.940Z,23.41
2022-08-30T16:34:49.913Z,23.40
2022-08-30T16:37:17.710Z,23.36
2022-08-30T16:39:46.831Z,23.32
2022-08-30T16:42:15.096Z,23.30
2022-08-30T16:44:50.415Z,23.27
2022-08-30T16:47:20.309Z,23.26
2022-08-30T16:49:48.091Z,23.26
2022-08-30T16:52:15.768Z,23.20
2022-08-30T16:54:45.989Z,23.17
2022-08-30T16:57:19.947Z,23.14
2022-08-30T16:59:47.883Z,23.10
2022-08-30T17:02:20.351Z,23.07
2022-08-30T17:04:52.801Z,23.07
2022-08-30T17:07:22.453Z,23.01
2022-08-30T17:09:50.699Z,22.97
2022-08-30T17:12:18.463Z,22.92
2022-08-30T17:14:47.533Z,22.87
2022-08-30T17:17:15.524Z,22.82
2022-08-30T17:19:45.345Z,22.78
2022-08-30T17:22:14.799Z,22.76
2022-08-30T17:24:42.645Z,22.74
2022-08-30T17:27:11.332Z,22.71
2022-08-30T17:29:39.717Z,22.66
2022-08-30T17:32:07.569Z,22.63
2022-08-30T17:34:36.732Z,22.58
2022-08-30T17:37:06.110Z,22.52
2022-08-30T17:39:33.880Z,22.48
2022-08-30T17:42:01.704Z,22.43
2022-08-30T17:44:32.454Z,22.37
2022-08-30T17:47:00.776Z,22.34
2022-08-30T17:49:30.198Z,22.29
2022-08-30T17:51:58.712Z,22.23
2022-08-30T17:54:28.889Z,22.21
2022-08-30T17:56:57.609Z,22.16
2022-08-30T17:59:26.635Z,22.12
2022-08-30T18:01:57.399Z,22.07
2022-08-30T18:04:26.861Z,22.02
2022-08-30T18:06:55.250Z,21.97
2022-08-30T18:09:23.493Z,21.90
2022-08-30T18:11:56.527Z,21.84
2022-08-30T18:14:24.937Z,21.77
2022-08-30T18:16:54.362Z,21.71
2022-08-30T18:19:22.936Z,21.65
2022-08-30T18:21:50.708Z,21.55
2022-08-30T18:24:19.069Z,21.48
2022-08-30T18:26:46.999Z,21.40
2022-08-30T18:29:22.474Z,21.32
2022-08-30T18:31:58.757Z,21.23
2022-08-30T18:34:26.481Z,21.15
2022-08-30T18:36:54.326Z,21.05
2022-08-30T18:39:22.998Z,20.97
2022-08-30T18:41:50.969Z,20.88
2022-08-30T18:44:28.312Z,20.80
2022-08-30T18:47:00.316Z,20.71
2022-08-30T18:49:28.989Z,20.63
2022-08-30T18:52:00.091Z,20.55
2022-08-30T18:54:28.918Z,20.46
2022-08-30T18:56:56.621Z,20.39
2022-08-30T18:59:35.630Z,20.31
2022-08-30T19:02:05.632Z,20.23
2022-08-30T19:04:35.741Z,20.19
2022-08-30T19:07:05.815Z,20.11
2022-08-30T19:09:33.568Z,20.07
2022-08-30T19:12:01.245Z,20.01
2022-08-30T19:14:30.334Z,19.95
2022-08-30T19:17:02.089Z,19.89
2022-08-30T19:19:32.505Z,19.81
2022-08-30T19:22:02.804Z,19.74
2022-08-30T19:24:30.678Z,19.65
2022-08-30T19:27:00.007Z,19.58
2022-08-30T19:29:28.177Z,19.53
2022-08-30T19:31:57.351Z,19.45
2022-08-30T19:34:25.035Z,19.40
2022-08-30T19:36:53.055Z,19.35
2022-08-30T19:39:20.952Z,19.28
2022-08-30T19:41:50.249Z,19.20
2022-08-30T19:44:17.949Z,19.16
2022-08-30T19:46:45.786Z,19.11
2022-08-30T19:49:15.095Z,19.06
2022-08-30T19:51:46.767Z,19.02
2022-08-30T19:54:15.336Z,18.96
2022-08-30T19:56:45.141Z,18.91
2022-08-30T19:59:12.830Z,18.87
2022-08-30T20:01:40.992Z,18.82
2022-08-30T20:04:09.019Z,18.77
2022-08-30T20:06:38.358Z,18.73
2022-08-30T20:09:06.957Z,18.70
2022-08-30T20:11:38.917Z,18.67
2022-08-30T20:14:07.876Z,18.66
2022-08-30T20:16:37.151Z,18.67
2022-08-30T20:19:07.149Z,18.64
2022-08-30T20:21:35.454Z,18.66
2022-08-30T20:24:05.316Z,18.66
2022-08-30T20:26:37.966Z,18.65
2022-08-30T20:29:07.619Z,18.63
2022-08-30T20:31:36.080Z,18.62
2022-08-30T20:34:05.073Z,18.59
2022-08-30T20:36:33.650Z,18.60
2022-08-30T20:39:02.160Z,18.59
2022-08-30T20:41:31.489Z,18.59
2022-08-30T20:44:00.011Z,18.60
2022-08-30T20:46:32.034Z,18.58
2022-08-30T20:49:03.212Z,18.58
2022-08-30T20:51:31.035Z,18.58
2022-08-30T20:53:58.773Z,18.60
2022-08-30T20:56:29.063Z,18.59
2022-08-30T20:59:01.872Z,18.59
2022-08-30T21:01:30.245Z,18.58
2022-08-30T21:03:58.024Z,18.59
2022-08-30T21:06:25.691Z,18.59
2022-08-30T21:08:53.675Z,18.57
2022-08-30T21:11:21.441Z,18.58
2022-08-30T21:13:49.081Z,18.58
2022-08-30T21:16:22.201Z,18.57
2022-08-30T21:18:50.575Z,18.57
2022-08-30T21:21:21.243Z,18.57
2022-08-30T21:23:49.354Z,18.56
2022-08-30T21:26:18.383Z,18.56
2022-08-30T21:28:47.705Z,18.56
2022-08-30T21:31:22.344Z,18.57
2022-08-30T21:33:51.988Z,18.57
2022-08-30T21:36:37.896Z,18.56
2022-08-30T21:39:07.217Z,18.56
2022-08-30T21:41:37.252Z,18.56
2022-08-30T21:44:07.433Z,18.56
2022-08-30T21:46:37.237Z,18.58
2022-08-30T21:49:07.436Z,18.57
2022-08-30T21:51:37.934Z,18.55
2022-08-30T21:54:08.640Z,18.56
2022-08-30T21:56:38.160Z,18.53
2022-08-30T21:59:07.567Z,18.51
2022-08-30T22:01:37.724Z,18.52
2022-08-30T22:04:09.901Z,18.50
2022-08-30T22:06:38.640Z,18.52
2022-08-30T22:09:09.255Z,18.47
2022-08-30T22:11:37.808Z,18.45
2022-08-30T22:14:07.079Z,18.43
2022-08-30T22:16:37.722Z,18.42
2022-08-30T22:19:05.548Z,18.39
2022-08-30T22:21:35.638Z,18.38
2022-08-30T22:24:04.569Z,18.40
2022-08-30T22:26:34.115Z,18.38
2022-08-30T22:29:02.534Z,18.39
2022-08-30T22:31:30.439Z,18.37
2022-08-30T22:33:59.604Z,18.35
2022-08-30T22:36:32.598Z,18.36
2022-08-30T22:39:03.012Z,18.36
2022-08-30T22:41:33.928Z,18.34
2022-08-30T22:44:02.184Z,18.33
2022-08-30T22:46:34.273Z,18.34
2022-08-30T22:49:04.383Z,18.33
2022-08-30T22:51:33.625Z,18.31
2022-08-30T22:54:01.861Z,18.29
2022-08-30T22:56:30.783Z,18.28
2022-08-30T22:58:58.716Z,18.30
2022-08-30T23:01:29.541Z,18.28
2022-08-30T23:03:58.700Z,18.26
2022-08-30T23:06:29.053Z,18.24
2022-08-30T23:08:57.192Z,18.21
2022-08-30T23:11:26.055Z,18.22
2022-08-30T23:13:54.879Z,18.20
2022-08-30T23:16:22.663Z,18.19
2022-08-30T23:18:50.743Z,18.20
2022-08-30T23:21:21.144Z,18.20
2022-08-30T23:24:08.723Z,18.18
2022-08-30T23:26:55.048Z,18.17
2022-08-30T23:29:40.536Z,18.15
2022-08-30T23:32:26.243Z,18.12
2022-08-30T23:35:11.464Z,18.13
2022-08-30T23:37:56.679Z,18.12
2022-08-30T23:40:43.489Z,18.07
2022-08-30T23:43:29.945Z,18.05
2022-08-30T23:46:18.883Z,18.04
2022-08-30T23:49:04.864Z,18.02
2022-08-30T23:51:50.403Z,17.96
2022-08-30T23:54:35.688Z,17.94
2022-08-30T23:57:23.618Z,17.91
